M I D A S
Marine Information and Data Acquisition System
Tripno 711 of the Zeeleeuw from 2004-05-07 07:14:48 to 2004-05-07 09:23:56
Back to CruiseResearch ActivitiesStationsMapUnderway DataData graphs

EquipmentUnitsComment
TimeDGPSUTC
LatitudeDGPSDM.mWGS84
LongitudeDGPSDM.mWGS84
HeadingGyrodeg 
SOGDGPSknotsSpeed over ground
COGDGPSdegCourse over ground
DepthEcho soundermeters200 kHz
Missing or incorrect values are displayed as -999
Navigation data collected by the RV Zeeleeuw from 2004-05-07 07:14:48 to 2004-05-07 09:23:56
Time Latitude Longitude Heading SOG COG Depth
2004-05-07 07:15:50 51°13.595 2°56.095 115.9 0.9 291 5.8
2004-05-07 07:16:52 51°13.618 2°56.021 119.1 4.2 296 -999
2004-05-07 07:17:52 51°13.651 2°55.904 113.6 5 292 -999
2004-05-07 07:18:52 51°13.667 2°55.789 95.2 3.1 276 7.5
2004-05-07 07:19:50 51°13.672 2°55.785 49 1.7 234 9.3
2004-05-07 07:20:50 51°13.696 2°55.762 339.7 4.6 328 11.8
2004-05-07 07:21:50 51°13.793 2°55.673 338.6 8.2 334 7.8
2004-05-07 07:22:50 51°13.921 2°55.581 340.4 8.6 336 8.1
2004-05-07 07:23:50 51°14.054 2°55.481 339 8.9 334 9.6
2004-05-07 07:24:51 51°14.196 2°55.353 330.9 10.3 325 9.4
2004-05-07 07:25:50 51°14.319 2°55.153 311.6 11.4 306 9.7
2004-05-07 07:26:50 51°14.418 2°54.866 298.3 13.5 290 9
2004-05-07 07:27:51 51°14.405 2°54.493 261.3 14.3 254 8.7
2004-05-07 07:28:51 51°14.329 2°54.139 254.2 14.1 246 7.5
2004-05-07 07:29:50 51°14.217 2°53.816 251.7 14.2 248 5.6
2004-05-07 07:30:50 51°14.084 2°53.507 237 14.3 234 5.7
2004-05-07 07:31:51 51°13.94 2°53.195 237.7 14.5 237 7.9
2004-05-07 07:32:51 51°13.794 2°52.891 234.5 14.6 232 7.9
2004-05-07 07:33:51 51°13.666 2°52.561 243.4 14.7 239 8.2
2004-05-07 07:34:50 51°13.534 2°52.243 245.6 14.6 243 8.3
2004-05-07 07:35:51 51°13.415 2°51.898 241.3 14.6 237 8.5
2004-05-07 07:36:50 51°13.302 2°51.563 246.7 14.7 241 8.5
2004-05-07 07:37:50 51°13.184 2°51.221 249.1 14.7 245 8.5
2004-05-07 07:38:50 51°13.054 2°50.89 237.3 14.7 234 8.6
2004-05-07 07:39:50 51°12.92 2°50.564 237 14.7 234 8.5
2004-05-07 07:40:51 51°12.785 2°50.233 239.1 14.6 235 8.4
2004-05-07 07:41:51 51°12.651 2°49.912 244.1 14.5 240 8.3
2004-05-07 07:42:50 51°12.515 2°49.604 238.6 14.5 239 8.1
2004-05-07 07:43:50 51°12.403 2°49.266 242.9 14.5 238 8.2
2004-05-07 07:44:50 51°12.284 2°48.935 249.6 14.4 244 8.2
2004-05-07 07:45:51 51°12.159 2°48.602 243.4 14.4 241 8.2
2004-05-07 07:46:50 51°12.05 2°48.271 241.3 14.4 237 8.2
2004-05-07 07:47:51 51°11.929 2°47.937 248.8 14.2 244 8
2004-05-07 07:48:51 51°11.812 2°47.64 233.3 10.9 235 7.9
2004-05-07 07:49:50 51°11.771 2°47.481 248.8 2.7 242 8.1
2004-05-07 07:50:52 51°11.768 2°47.47 222 0.2 308 -999
2004-05-07 07:51:51 51°11.769 2°47.461 219.9 0.4 265 8.1
2004-05-07 07:52:50 51°11.768 2°47.452 215.5 0.4 244 8.1
2004-05-07 07:53:51 51°11.764 2°47.441 208.7 0.5 237 8.1
2004-05-07 07:54:50 51°11.76 2°47.427 199.5 0.6 238 8.1
2004-05-07 07:55:51 51°11.753 2°47.412 192.1 0.7 233 8.1
2004-05-07 07:56:50 51°11.745 2°47.398 185.4 0.9 228 8.1
2004-05-07 07:57:51 51°11.735 2°47.382 179.4 0.9 223 8
2004-05-07 07:58:50 51°11.722 2°47.367 175.1 0.9 214 7.9
2004-05-07 07:59:50 51°11.709 2°47.354 172.2 1 210 7.8
2004-05-07 08:00:50 51°11.687 2°47.339 179.6 2.9 195 7.6
2004-05-07 08:01:50 51°11.642 2°47.225 276.4 6.3 270 7.4
2004-05-07 08:02:50 51°11.681 2°47.117 343.9 4.4 332 8.1
2004-05-07 08:03:50 51°11.742 2°47.156 51.2 3.9 42 8.6
2004-05-07 08:04:50 51°11.784 2°47.228 58.7 3.5 54 8.9
2004-05-07 08:05:51 51°11.812 2°47.308 66.5 3.4 64 9
2004-05-07 08:06:50 51°11.826 2°47.392 79.3 3.3 79 8.9
2004-05-07 08:07:50 51°11.839 2°47.476 73.1 3.3 72 8.8
2004-05-07 08:08:51 51°11.858 2°47.571 73.3 3.7 73 8.7
2004-05-07 08:09:51 51°11.875 2°47.667 73.9 3.8 75 8.6
2004-05-07 08:10:50 51°11.892 2°47.761 74 3.6 74 8.6
2004-05-07 08:11:49 51°11.906 2°47.847 73.7 3.3 74 8.5
2004-05-07 08:12:51 51°11.922 2°47.933 70 3.3 69 8.4
2004-05-07 08:13:50 51°11.943 2°48.01 67.3 3.2 67 8.4
2004-05-07 08:14:51 51°11.962 2°48.089 67.9 3.2 66 8.4
2004-05-07 08:15:51 51°11.981 2°48.167 68.7 3.2 67 8.3
2004-05-07 08:16:49 51°11.999 2°48.243 68.9 3.2 66 8.3
2004-05-07 08:17:50 51°12.026 2°48.317 58.5 3.1 55 8.3
2004-05-07 08:18:51 51°12.057 2°48.385 56.6 3.1 53 8.4
2004-05-07 08:19:50 51°12.088 2°48.451 57.5 3.1 53 8.5
2004-05-07 08:20:50 51°12.117 2°48.521 59.2 3.1 57 8.5
2004-05-07 08:21:51 51°12.147 2°48.593 59.4 3.1 57 8.5
2004-05-07 08:22:49 51°12.175 2°48.661 59.5 3.2 57 8.6
2004-05-07 08:23:49 51°12.204 2°48.73 59 3.2 56 8.6
2004-05-07 08:24:51 51°12.234 2°48.801 59.2 3.1 55 8.6
2004-05-07 08:25:50 51°12.262 2°48.87 59.5 3.1 57 8.6
2004-05-07 08:26:50 51°12.289 2°48.938 59.4 3.1 58 8.6
2004-05-07 08:27:50 51°12.317 2°49.007 59.1 3.1 55 8.7
2004-05-07 08:28:51 51°12.348 2°49.076 58.8 3.1 55 8.7
2004-05-07 08:29:51 51°12.377 2°49.144 59.1 3 58 8.8
2004-05-07 08:30:49 51°12.403 2°49.209 60 3.1 55 8.7
2004-05-07 08:31:51 51°12.429 2°49.278 62.4 2.9 63 8.8
2004-05-07 08:32:50 51°12.446 2°49.347 66.6 2.8 65 8.7
2004-05-07 08:33:50 51°12.465 2°49.412 62.2 2.9 59 8.7
2004-05-07 08:34:51 51°12.487 2°49.452 45.7 1.6 36 8.8
2004-05-07 08:35:51 51°12.506 2°49.463 34 1 3 9
2004-05-07 08:36:51 51°12.52 2°49.46 25.7 0.8 337 9.1
2004-05-07 08:37:51 51°12.53 2°49.449 18.8 0.8 311 9.2
2004-05-07 08:38:50 51°12.54 2°49.434 15.5 1.2 335 9.3
2004-05-07 08:39:50 51°12.572 2°49.446 41.7 2.6 29 9.4
2004-05-07 08:40:52 51°12.622 2°49.478 34.2 3.9 22 9.7
2004-05-07 08:41:51 51°12.675 2°49.547 57.8 4.3 53 9.8
2004-05-07 08:42:50 51°12.716 2°49.644 57.4 4.6 54 9.9
2004-05-07 08:43:50 51°12.762 2°49.741 58 4.6 54 10
2004-05-07 08:44:50 51°12.807 2°49.841 58.1 4.7 54 10
2004-05-07 08:45:51 51°12.853 2°49.944 59.3 4.7 56 10
2004-05-07 08:46:51 51°12.897 2°50.045 58.7 4.7 54 10
2004-05-07 08:47:50 51°12.942 2°50.144 59.4 4.7 56 10
2004-05-07 08:48:50 51°12.987 2°50.247 58.7 4.7 54 10.1
2004-05-07 08:49:51 51°13.032 2°50.352 59.6 4.7 55 10
2004-05-07 08:50:50 51°13.076 2°50.455 59.5 4.8 57 10
2004-05-07 08:51:50 51°13.121 2°50.561 59.1 4.8 55 10
2004-05-07 08:52:50 51°13.166 2°50.668 59.1 5 56 10
2004-05-07 08:53:50 51°13.212 2°50.778 59.3 5 56 9.9
2004-05-07 08:54:51 51°13.258 2°50.891 59.4 5.1 56 9.9
2004-05-07 08:55:50 51°13.305 2°51.003 58.9 5.2 56 10
2004-05-07 08:56:50 51°13.351 2°51.119 62.1 5.2 60 9.9
2004-05-07 08:57:51 51°13.391 2°51.245 65.3 5.2 64 9.9
2004-05-07 08:58:51 51°13.431 2°51.368 64 5.2 62 9.9
2004-05-07 08:59:50 51°13.47 2°51.491 65.2 5.3 64 9.8
2004-05-07 09:00:50 51°13.51 2°51.617 64.5 5.3 64 9.8
2004-05-07 09:01:50 51°13.549 2°51.742 64.5 5.3 63 9.7
2004-05-07 09:02:50 51°13.589 2°51.867 63.2 5.3 63 9.6
2004-05-07 09:03:51 51°13.628 2°51.993 64.9 5.2 65 9.7
2004-05-07 09:04:50 51°13.666 2°52.113 64 5.1 63 9.6
2004-05-07 09:05:51 51°13.705 2°52.236 65.3 5.1 63 9.6
2004-05-07 09:06:51 51°13.743 2°52.357 64 5.1 63 9.5
2004-05-07 09:07:51 51°13.781 2°52.477 64 5.1 62 9.5
2004-05-07 09:08:51 51°13.821 2°52.596 64.6 5.1 64 9.4
2004-05-07 09:09:52 51°13.859 2°52.719 64.2 5.1 63 9.4
2004-05-07 09:10:50 51°13.896 2°52.836 64.8 5.2 64 9.3
2004-05-07 09:11:50 51°13.935 2°52.957 64 5.2 64 9.2
2004-05-07 09:12:51 51°13.975 2°53.082 64.4 5.2 63 9.1
2004-05-07 09:13:50 51°14.038 2°53.267 64.2 11.1 60 8.6
2004-05-07 09:14:50 51°14.133 2°53.54 64.1 12 60 8.3
2004-05-07 09:15:50 51°14.231 2°53.822 64.3 12.1 60 8.1
2004-05-07 09:16:51 51°14.309 2°54.123 72.5 12.1 68 8
2004-05-07 09:17:50 51°14.402 2°54.404 71.2 12.4 70 8.2
2004-05-07 09:18:51 51°14.425 2°54.741 96 12.7 95 9.3
2004-05-07 09:19:51 51°14.355 2°55.055 117.2 12.5 116 9.8
2004-05-07 09:20:50 51°14.249 2°55.296 137.3 9.6 135 9.9
2004-05-07 09:21:51 51°14.146 2°55.427 149.8 6.8 145 9.9
2004-05-07 09:22:51 51°14.057 2°55.516 154.4 5.9 149 10
2004-05-07 09:23:51 51°13.975 2°55.6 155 6.1 151 9.6